sensor_id;sensor_type;location;lat;lon;timestamp;P1;durP1;ratioP1;P2;durP2;ratioP2
56999;SDS011;42891;50.006;21.964;2023-07-28T00:03:59;7.13;;;4.40;;
56999;SDS011;42891;50.006;21.964;2023-07-28T00:08:00;7.20;;;4.38;;
56999;SDS011;42891;50.006;21.964;2023-07-28T00:12:00;7.25;;;4.22;;
56999;SDS011;42891;50.006;21.964;2023-07-28T00:16:01;5.45;;;4.35;;
56999;SDS011;42891;50.006;21.964;2023-07-28T00:20:01;5.27;;;4.13;;
56999;SDS011;42891;50.006;21.964;2023-07-28T00:24:02;7.90;;;4.53;;
56999;SDS011;42891;50.006;21.964;2023-07-28T00:28:03;5.82;;;4.07;;
56999;SDS011;42891;50.006;21.964;2023-07-28T00:32:03;7.25;;;4.10;;
56999;SDS011;42891;50.006;21.964;2023-07-28T00:36:04;6.32;;;4.18;;
56999;SDS011;42891;50.006;21.964;2023-07-28T00:40:04;10.80;;;3.97;;
56999;SDS011;42891;50.006;21.964;2023-07-28T00:44:05;7.90;;;4.18;;
56999;SDS011;42891;50.006;21.964;2023-07-28T00:48:06;5.30;;;3.65;;
56999;SDS011;42891;50.006;21.964;2023-07-28T00:52:14;5.75;;;4.15;;
56999;SDS011;42891;50.006;21.964;2023-07-28T00:56:14;6.35;;;4.30;;
56999;SDS011;42891;50.006;21.964;2023-07-28T01:00:15;6.60;;;4.40;;
56999;SDS011;42891;50.006;21.964;2023-07-28T01:04:15;8.02;;;4.57;;
56999;SDS011;42891;50.006;21.964;2023-07-28T01:08:21;7.95;;;4.35;;
56999;SDS011;42891;50.006;21.964;2023-07-28T01:12:28;5.97;;;3.53;;
56999;SDS011;42891;50.006;21.964;2023-07-28T01:16:29;7.90;;;4.00;;
56999;SDS011;42891;50.006;21.964;2023-07-28T01:20:29;5.32;;;3.78;;
56999;SDS011;42891;50.006;21.964;2023-07-28T01:24:49;7.07;;;3.53;;
56999;SDS011;42891;50.006;21.964;2023-07-28T01:28:55;5.13;;;3.50;;
56999;SDS011;42891;50.006;21.964;2023-07-28T01:32:56;4.93;;;3.33;;
56999;SDS011;42891;50.006;21.964;2023-07-28T01:36:57;8.60;;;3.90;;
56999;SDS011;42891;50.006;21.964;2023-07-28T01:40:57;5.43;;;3.33;;
56999;SDS011;42891;50.006;21.964;2023-07-28T01:44:57;4.75;;;3.90;;
56999;SDS011;42891;50.006;21.964;2023-07-28T01:48:58;6.28;;;3.30;;
56999;SDS011;42891;50.006;21.964;2023-07-28T01:52:58;4.47;;;3.03;;
56999;SDS011;42891;50.006;21.964;2023-07-28T01:56:59;5.85;;;3.22;;
56999;SDS011;42891;50.006;21.964;2023-07-28T02:00:59;6.65;;;3.28;;
56999;SDS011;42891;50.006;21.964;2023-07-28T02:04:59;5.22;;;2.97;;
56999;SDS011;42891;50.006;21.964;2023-07-28T02:09:00;5.32;;;3.25;;
56999;SDS011;42891;50.006;21.964;2023-07-28T02:13:00;4.93;;;3.25;;
56999;SDS011;42891;50.006;21.964;2023-07-28T02:17:00;5.93;;;3.13;;
56999;SDS011;42891;50.006;21.964;2023-07-28T02:21:01;5.23;;;3.00;;
56999;SDS011;42891;50.006;21.964;2023-07-28T02:25:01;3.97;;;2.88;;
56999;SDS011;42891;50.006;21.964;2023-07-28T02:29:02;6.30;;;2.92;;
56999;SDS011;42891;50.006;21.964;2023-07-28T02:33:02;7.50;;;3.55;;
56999;SDS011;42891;50.006;21.964;2023-07-28T02:37:02;4.22;;;2.90;;
56999;SDS011;42891;50.006;21.964;2023-07-28T02:41:03;4.10;;;3.10;;
56999;SDS011;42891;50.006;21.964;2023-07-28T02:45:04;6.80;;;3.17;;
56999;SDS011;42891;50.006;21.964;2023-07-28T02:49:05;5.22;;;2.80;;
56999;SDS011;42891;50.006;21.964;2023-07-28T02:53:05;4.88;;;3.10;;
56999;SDS011;42891;50.006;21.964;2023-07-28T02:57:05;4.85;;;2.88;;
56999;SDS011;42891;50.006;21.964;2023-07-28T03:01:06;2.75;;;2.42;;
56999;SDS011;42891;50.006;21.964;2023-07-28T03:05:06;4.05;;;2.88;;
56999;SDS011;42891;50.006;21.964;2023-07-28T03:09:07;5.70;;;2.75;;
56999;SDS011;42891;50.006;21.964;2023-07-28T03:13:07;4.78;;;2.72;;
56999;SDS011;42891;50.006;21.964;2023-07-28T03:17:08;3.63;;;2.75;;
56999;SDS011;42891;50.006;21.964;2023-07-28T03:21:08;4.07;;;2.80;;
56999;SDS011;42891;50.006;21.964;2023-07-28T03:25:09;4.88;;;2.85;;
56999;SDS011;42891;50.006;21.964;2023-07-28T03:29:10;4.63;;;3.10;;
56999;SDS011;42891;50.006;21.964;2023-07-28T03:33:10;5.82;;;2.80;;
56999;SDS011;42891;50.006;21.964;2023-07-28T03:37:10;6.13;;;2.95;;
56999;SDS011;42891;50.006;21.964;2023-07-28T03:41:11;10.18;;;2.83;;
56999;SDS011;42891;50.006;21.964;2023-07-28T03:45:12;5.07;;;2.58;;
56999;SDS011;42891;50.006;21.964;2023-07-28T03:49:12;5.07;;;2.85;;
56999;SDS011;42891;50.006;21.964;2023-07-28T03:53:13;7.47;;;2.75;;
56999;SDS011;42891;50.006;21.964;2023-07-28T03:57:13;5.35;;;2.80;;
56999;SDS011;42891;50.006;21.964;2023-07-28T04:01:13;2.55;;;2.22;;
56999;SDS011;42891;50.006;21.964;2023-07-28T04:05:14;3.92;;;2.60;;
56999;SDS011;42891;50.006;21.964;2023-07-28T04:09:14;4.60;;;2.70;;
56999;SDS011;42891;50.006;21.964;2023-07-28T04:13:15;3.33;;;2.80;;
56999;SDS011;42891;50.006;21.964;2023-07-28T04:17:15;5.35;;;2.58;;
56999;SDS011;42891;50.006;21.964;2023-07-28T04:21:15;5.43;;;2.58;;
56999;SDS011;42891;50.006;21.964;2023-07-28T04:25:16;5.13;;;2.65;;
56999;SDS011;42891;50.006;21.964;2023-07-28T04:29:16;5.75;;;2.70;;
56999;SDS011;42891;50.006;21.964;2023-07-28T04:33:16;6.88;;;2.58;;
56999;SDS011;42891;50.006;21.964;2023-07-28T04:37:17;6.28;;;3.00;;
56999;SDS011;42891;50.006;21.964;2023-07-28T04:41:17;3.50;;;2.42;;
56999;SDS011;42891;50.006;21.964;2023-07-28T04:45:17;4.50;;;2.50;;
56999;SDS011;42891;50.006;21.964;2023-07-28T04:49:18;2.33;;;2.10;;
56999;SDS011;42891;50.006;21.964;2023-07-28T04:53:19;3.38;;;2.47;;
56999;SDS011;42891;50.006;21.964;2023-07-28T04:57:19;2.10;;;1.90;;
56999;SDS011;42891;50.006;21.964;2023-07-28T05:01:19;4.38;;;2.35;;
56999;SDS011;42891;50.006;21.964;2023-07-28T05:05:20;5.45;;;2.65;;
56999;SDS011;42891;50.006;21.964;2023-07-28T05:09:20;3.88;;;2.20;;
56999;SDS011;42891;50.006;21.964;2023-07-28T05:13:21;4.68;;;2.47;;
56999;SDS011;42891;50.006;21.964;2023-07-28T05:17:21;6.03;;;2.45;;
56999;SDS011;42891;50.006;21.964;2023-07-28T05:21:21;2.92;;;2.22;;
56999;SDS011;42891;50.006;21.964;2023-07-28T05:25:22;3.33;;;2.20;;
56999;SDS011;42891;50.006;21.964;2023-07-28T05:29:22;2.53;;;2.33;;
56999;SDS011;42891;50.006;21.964;2023-07-28T05:33:22;4.07;;;2.05;;
56999;SDS011;42891;50.006;21.964;2023-07-28T05:37:23;5.43;;;2.15;;
56999;SDS011;42891;50.006;21.964;2023-07-28T05:41:23;6.57;;;2.63;;
56999;SDS011;42891;50.006;21.964;2023-07-28T05:45:24;4.50;;;2.20;;
56999;SDS011;42891;50.006;21.964;2023-07-28T05:49:24;4.70;;;2.17;;
56999;SDS011;42891;50.006;21.964;2023-07-28T05:53:25;3.72;;;2.20;;
56999;SDS011;42891;50.006;21.964;2023-07-28T05:57:25;3.38;;;2.25;;
56999;SDS011;42891;50.006;21.964;2023-07-28T06:01:25;4.15;;;2.20;;
56999;SDS011;42891;50.006;21.964;2023-07-28T06:05:27;5.80;;;2.20;;
56999;SDS011;42891;50.006;21.964;2023-07-28T06:09:27;4.60;;;2.13;;
56999;SDS011;42891;50.006;21.964;2023-07-28T06:13:28;4.47;;;2.40;;
56999;SDS011;42891;50.006;21.964;2023-07-28T06:17:28;2.70;;;2.03;;
56999;SDS011;42891;50.006;21.964;2023-07-28T06:21:28;2.47;;;2.00;;
56999;SDS011;42891;50.006;21.964;2023-07-28T06:25:29;4.32;;;2.17;;
56999;SDS011;42891;50.006;21.964;2023-07-28T06:29:29;2.35;;;1.77;;
56999;SDS011;42891;50.006;21.964;2023-07-28T06:33:29;3.58;;;2.22;;
56999;SDS011;42891;50.006;21.964;2023-07-28T06:37:30;3.35;;;2.30;;
56999;SDS011;42891;50.006;21.964;2023-07-28T06:41:30;2.78;;;2.15;;
56999;SDS011;42891;50.006;21.964;2023-07-28T06:45:30;3.50;;;2.03;;
56999;SDS011;42891;50.006;21.964;2023-07-28T06:49:31;5.73;;;2.10;;
56999;SDS011;42891;50.006;21.964;2023-07-28T06:53:31;5.60;;;2.13;;
56999;SDS011;42891;50.006;21.964;2023-07-28T06:57:31;3.10;;;2.10;;
56999;SDS011;42891;50.006;21.964;2023-07-28T07:01:32;3.42;;;2.30;;
56999;SDS011;42891;50.006;21.964;2023-07-28T07:05:32;7.03;;;2.28;;
56999;SDS011;42891;50.006;21.964;2023-07-28T07:09:33;2.20;;;1.90;;
56999;SDS011;42891;50.006;21.964;2023-07-28T07:13:33;4.85;;;2.30;;
56999;SDS011;42891;50.006;21.964;2023-07-28T07:17:33;3.72;;;2.13;;
56999;SDS011;42891;50.006;21.964;2023-07-28T07:21:34;3.50;;;2.10;;
56999;SDS011;42891;50.006;21.964;2023-07-28T07:25:34;4.68;;;1.95;;
56999;SDS011;42891;50.006;21.964;2023-07-28T07:29:35;4.73;;;2.50;;
56999;SDS011;42891;50.006;21.964;2023-07-28T07:33:35;5.17;;;2.43;;
56999;SDS011;42891;50.006;21.964;2023-07-28T07:37:37;4.55;;;2.00;;
56999;SDS011;42891;50.006;21.964;2023-07-28T07:41:38;2.80;;;2.10;;
56999;SDS011;42891;50.006;21.964;2023-07-28T07:45:39;6.05;;;2.50;;
56999;SDS011;42891;50.006;21.964;2023-07-28T07:49:39;2.83;;;2.30;;
56999;SDS011;42891;50.006;21.964;2023-07-28T07:53:40;5.10;;;2.42;;
56999;SDS011;42891;50.006;21.964;2023-07-28T07:57:40;3.45;;;2.25;;
56999;SDS011;42891;50.006;21.964;2023-07-28T08:01:41;3.17;;;2.20;;
56999;SDS011;42891;50.006;21.964;2023-07-28T08:05:42;5.40;;;2.20;;
56999;SDS011;42891;50.006;21.964;2023-07-28T08:09:42;3.08;;;1.73;;
56999;SDS011;42891;50.006;21.964;2023-07-28T08:13:42;8.00;;;2.10;;
56999;SDS011;42891;50.006;21.964;2023-07-28T08:17:45;2.08;;;1.73;;
56999;SDS011;42891;50.006;21.964;2023-07-28T08:21:46;7.18;;;2.30;;
56999;SDS011;42891;50.006;21.964;2023-07-28T08:25:46;2.65;;;1.90;;
56999;SDS011;42891;50.006;21.964;2023-07-28T08:29:47;4.70;;;2.30;;
56999;SDS011;42891;50.006;21.964;2023-07-28T08:33:47;4.55;;;2.20;;
56999;SDS011;42891;50.006;21.964;2023-07-28T08:37:47;8.53;;;2.80;;
56999;SDS011;42891;50.006;21.964;2023-07-28T08:41:56;5.50;;;2.15;;
56999;SDS011;42891;50.006;21.964;2023-07-28T08:45:57;3.38;;;2.47;;
56999;SDS011;42891;50.006;21.964;2023-07-28T08:49:58;5.38;;;2.38;;
56999;SDS011;42891;50.006;21.964;2023-07-28T08:53:58;6.28;;;2.55;;
56999;SDS011;42891;50.006;21.964;2023-07-28T08:58:13;3.22;;;2.40;;
56999;SDS011;42891;50.006;21.964;2023-07-28T09:02:19;3.67;;;2.45;;
56999;SDS011;42891;50.006;21.964;2023-07-28T09:06:27;4.05;;;2.40;;
56999;SDS011;42891;50.006;21.964;2023-07-28T09:10:40;4.20;;;2.80;;
56999;SDS011;42891;50.006;21.964;2023-07-28T09:14:41;3.50;;;2.72;;
56999;SDS011;42891;50.006;21.964;2023-07-28T09:18:42;3.57;;;2.60;;
56999;SDS011;42891;50.006;21.964;2023-07-28T09:22:42;3.88;;;2.80;;
56999;SDS011;42891;50.006;21.964;2023-07-28T09:26:44;5.03;;;2.67;;
56999;SDS011;42891;50.006;21.964;2023-07-28T09:34:49;4.95;;;3.05;;
56999;SDS011;42891;50.006;21.964;2023-07-28T09:39:18;4.15;;;3.15;;
56999;SDS011;42891;50.006;21.964;2023-07-28T09:43:20;4.13;;;3.13;;
56999;SDS011;42891;50.006;21.964;2023-07-28T09:47:21;5.70;;;3.60;;
56999;SDS011;42891;50.006;21.964;2023-07-28T09:51:21;5.22;;;3.63;;
56999;SDS011;42891;50.006;21.964;2023-07-28T09:55:26;5.67;;;3.40;;
56999;SDS011;42891;50.006;21.964;2023-07-28T09:59:32;5.10;;;3.33;;
56999;SDS011;42891;50.006;21.964;2023-07-28T10:03:35;5.25;;;3.25;;
56999;SDS011;42891;50.006;21.964;2023-07-28T10:07:39;4.32;;;3.30;;
56999;SDS011;42891;50.006;21.964;2023-07-28T10:11:40;5.15;;;3.47;;
56999;SDS011;42891;50.006;21.964;2023-07-28T10:15:40;3.75;;;3.10;;
56999;SDS011;42891;50.006;21.964;2023-07-28T10:19:42;8.05;;;2.97;;
56999;SDS011;42891;50.006;21.964;2023-07-28T10:23:43;4.63;;;3.22;;
56999;SDS011;42891;50.006;21.964;2023-07-28T10:27:45;4.43;;;3.10;;
56999;SDS011;42891;50.006;21.964;2023-07-28T10:31:53;4.70;;;3.67;;
56999;SDS011;42891;50.006;21.964;2023-07-28T10:35:55;5.57;;;3.22;;
56999;SDS011;42891;50.006;21.964;2023-07-28T10:44:35;4.75;;;3.40;;
56999;SDS011;42891;50.006;21.964;2023-07-28T10:48:37;5.28;;;3.55;;
56999;SDS011;42891;50.006;21.964;2023-07-28T10:52:45;5.25;;;3.35;;
56999;SDS011;42891;50.006;21.964;2023-07-28T10:56:46;6.63;;;3.40;;
56999;SDS011;42891;50.006;21.964;2023-07-28T11:00:49;4.38;;;3.63;;
56999;SDS011;42891;50.006;21.964;2023-07-28T11:04:51;5.35;;;3.30;;
56999;SDS011;42891;50.006;21.964;2023-07-28T11:08:52;4.85;;;3.58;;
56999;SDS011;42891;50.006;21.964;2023-07-28T11:12:52;4.75;;;3.38;;
56999;SDS011;42891;50.006;21.964;2023-07-28T11:16:53;4.05;;;3.40;;
56999;SDS011;42891;50.006;21.964;2023-07-28T11:20:54;4.35;;;3.30;;
56999;SDS011;42891;50.006;21.964;2023-07-28T11:24:55;3.83;;;3.20;;
56999;SDS011;42891;50.006;21.964;2023-07-28T11:28:55;4.97;;;3.42;;
56999;SDS011;42891;50.006;21.964;2023-07-28T11:32:56;3.83;;;3.35;;
56999;SDS011;42891;50.006;21.964;2023-07-28T11:36:56;4.35;;;3.38;;
56999;SDS011;42891;50.006;21.964;2023-07-28T11:40:59;5.07;;;3.60;;
56999;SDS011;42891;50.006;21.964;2023-07-28T11:45:00;3.72;;;3.10;;
56999;SDS011;42891;50.006;21.964;2023-07-28T11:49:11;4.68;;;3.33;;
56999;SDS011;42891;50.006;21.964;2023-07-28T11:53:13;4.60;;;3.40;;
56999;SDS011;42891;50.006;21.964;2023-07-28T11:57:13;6.15;;;3.20;;
56999;SDS011;42891;50.006;21.964;2023-07-28T12:01:14;8.10;;;4.05;;
56999;SDS011;42891;50.006;21.964;2023-07-28T12:05:15;4.15;;;3.30;;
56999;SDS011;42891;50.006;21.964;2023-07-28T12:09:16;5.25;;;3.90;;
56999;SDS011;42891;50.006;21.964;2023-07-28T12:13:16;4.82;;;3.38;;
56999;SDS011;42891;50.006;21.964;2023-07-28T12:17:19;5.07;;;3.63;;
56999;SDS011;42891;50.006;21.964;2023-07-28T12:21:21;6.03;;;3.67;;
56999;SDS011;42891;50.006;21.964;2023-07-28T12:25:22;4.38;;;3.58;;
56999;SDS011;42891;50.006;21.964;2023-07-28T12:29:22;4.32;;;3.70;;
56999;SDS011;42891;50.006;21.964;2023-07-28T12:33:22;7.17;;;4.00;;
56999;SDS011;42891;50.006;21.964;2023-07-28T12:37:23;5.82;;;3.47;;
56999;SDS011;42891;50.006;21.964;2023-07-28T12:41:23;3.83;;;3.00;;
56999;SDS011;42891;50.006;21.964;2023-07-28T12:45:24;4.95;;;3.40;;
56999;SDS011;42891;50.006;21.964;2023-07-28T12:49:25;4.65;;;3.45;;
56999;SDS011;42891;50.006;21.964;2023-07-28T12:53:26;5.90;;;3.70;;
56999;SDS011;42891;50.006;21.964;2023-07-28T12:57:26;4.13;;;3.35;;
56999;SDS011;42891;50.006;21.964;2023-07-28T13:01:27;5.97;;;3.50;;
56999;SDS011;42891;50.006;21.964;2023-07-28T13:05:27;6.17;;;3.60;;
56999;SDS011;42891;50.006;21.964;2023-07-28T13:09:27;6.63;;;3.70;;
56999;SDS011;42891;50.006;21.964;2023-07-28T13:13:28;4.35;;;3.47;;
56999;SDS011;42891;50.006;21.964;2023-07-28T13:17:30;5.80;;;3.38;;
56999;SDS011;42891;50.006;21.964;2023-07-28T13:21:30;3.72;;;3.30;;
56999;SDS011;42891;50.006;21.964;2023-07-28T13:25:31;5.20;;;3.33;;
56999;SDS011;42891;50.006;21.964;2023-07-28T13:29:31;6.25;;;3.53;;
56999;SDS011;42891;50.006;21.964;2023-07-28T13:33:32;6.68;;;3.38;;
56999;SDS011;42891;50.006;21.964;2023-07-28T13:37:32;4.30;;;3.30;;
56999;SDS011;42891;50.006;21.964;2023-07-28T13:41:32;5.80;;;3.83;;
56999;SDS011;42891;50.006;21.964;2023-07-28T13:45:33;4.87;;;3.50;;
56999;SDS011;42891;50.006;21.964;2023-07-28T13:49:33;5.20;;;3.40;;
56999;SDS011;42891;50.006;21.964;2023-07-28T13:53:35;4.50;;;3.35;;
56999;SDS011;42891;50.006;21.964;2023-07-28T13:57:35;5.43;;;3.53;;
56999;SDS011;42891;50.006;21.964;2023-07-28T14:01:36;3.50;;;3.08;;
56999;SDS011;42891;50.006;21.964;2023-07-28T14:05:36;6.90;;;3.50;;
56999;SDS011;42891;50.006;21.964;2023-07-28T14:09:37;6.15;;;3.05;;
56999;SDS011;42891;50.006;21.964;2023-07-28T14:13:38;6.20;;;3.50;;
56999;SDS011;42891;50.006;21.964;2023-07-28T14:17:39;5.18;;;3.60;;
56999;SDS011;42891;50.006;21.964;2023-07-28T14:21:39;3.92;;;3.38;;
56999;SDS011;42891;50.006;21.964;2023-07-28T14:25:40;3.60;;;2.95;;
56999;SDS011;42891;50.006;21.964;2023-07-28T14:29:40;6.72;;;3.00;;
56999;SDS011;42891;50.006;21.964;2023-07-28T14:33:40;4.03;;;3.00;;
56999;SDS011;42891;50.006;21.964;2023-07-28T14:37:41;5.18;;;3.20;;
56999;SDS011;42891;50.006;21.964;2023-07-28T14:41:41;4.50;;;3.10;;
56999;SDS011;42891;50.006;21.964;2023-07-28T14:45:41;5.27;;;3.00;;
56999;SDS011;42891;50.006;21.964;2023-07-28T14:49:42;5.60;;;3.17;;
56999;SDS011;42891;50.006;21.964;2023-07-28T14:53:42;3.25;;;2.60;;
56999;SDS011;42891;50.006;21.964;2023-07-28T14:57:45;5.18;;;3.33;;
56999;SDS011;42891;50.006;21.964;2023-07-28T15:01:45;3.97;;;2.92;;
56999;SDS011;42891;50.006;21.964;2023-07-28T15:05:46;5.47;;;3.03;;
56999;SDS011;42891;50.006;21.964;2023-07-28T15:09:47;5.03;;;3.00;;
56999;SDS011;42891;50.006;21.964;2023-07-28T15:13:47;4.40;;;2.90;;
56999;SDS011;42891;50.006;21.964;2023-07-28T15:17:47;4.40;;;2.90;;
56999;SDS011;42891;50.006;21.964;2023-07-28T15:21:48;3.97;;;2.72;;
56999;SDS011;42891;50.006;21.964;2023-07-28T15:25:48;3.67;;;2.50;;
56999;SDS011;42891;50.006;21.964;2023-07-28T15:29:48;3.20;;;2.58;;
56999;SDS011;42891;50.006;21.964;2023-07-28T15:33:49;3.70;;;2.53;;
56999;SDS011;42891;50.006;21.964;2023-07-28T15:37:49;4.30;;;3.03;;
56999;SDS011;42891;50.006;21.964;2023-07-28T15:41:49;3.25;;;2.50;;
56999;SDS011;42891;50.006;21.964;2023-07-28T15:45:50;3.57;;;2.40;;
56999;SDS011;42891;50.006;21.964;2023-07-28T15:49:54;4.22;;;2.60;;
56999;SDS011;42891;50.006;21.964;2023-07-28T15:53:54;4.05;;;2.28;;
56999;SDS011;42891;50.006;21.964;2023-07-28T15:57:54;4.63;;;2.58;;
56999;SDS011;42891;50.006;21.964;2023-07-28T16:01:55;4.40;;;2.38;;
56999;SDS011;42891;50.006;21.964;2023-07-28T16:05:55;4.97;;;2.72;;
56999;SDS011;42891;50.006;21.964;2023-07-28T16:09:56;5.70;;;2.53;;
56999;SDS011;42891;50.006;21.964;2023-07-28T16:13:56;4.97;;;2.58;;
56999;SDS011;42891;50.006;21.964;2023-07-28T16:17:57;3.00;;;2.40;;
56999;SDS011;42891;50.006;21.964;2023-07-28T16:21:57;2.75;;;2.30;;
56999;SDS011;42891;50.006;21.964;2023-07-28T16:25:58;3.58;;;2.60;;
56999;SDS011;42891;50.006;21.964;2023-07-28T16:29:58;4.65;;;2.78;;
56999;SDS011;42891;50.006;21.964;2023-07-28T16:33:59;2.90;;;2.20;;
56999;SDS011;42891;50.006;21.964;2023-07-28T16:37:59;4.17;;;2.33;;
56999;SDS011;42891;50.006;21.964;2023-07-28T16:41:59;3.92;;;2.78;;
56999;SDS011;42891;50.006;21.964;2023-07-28T16:46:02;4.03;;;2.80;;
56999;SDS011;42891;50.006;21.964;2023-07-28T16:50:02;4.65;;;2.97;;
56999;SDS011;42891;50.006;21.964;2023-07-28T16:54:03;3.70;;;2.67;;
56999;SDS011;42891;50.006;21.964;2023-07-28T16:58:04;4.47;;;2.10;;
56999;SDS011;42891;50.006;21.964;2023-07-28T17:02:04;4.60;;;2.20;;
56999;SDS011;42891;50.006;21.964;2023-07-28T17:06:05;3.85;;;2.40;;
56999;SDS011;42891;50.006;21.964;2023-07-28T17:10:05;4.53;;;2.60;;
56999;SDS011;42891;50.006;21.964;2023-07-28T17:14:06;4.57;;;2.53;;
56999;SDS011;42891;50.006;21.964;2023-07-28T17:18:07;4.10;;;2.42;;
56999;SDS011;42891;50.006;21.964;2023-07-28T17:22:08;2.80;;;2.50;;
56999;SDS011;42891;50.006;21.964;2023-07-28T17:26:09;3.10;;;2.55;;
56999;SDS011;42891;50.006;21.964;2023-07-28T17:30:09;3.95;;;2.50;;
56999;SDS011;42891;50.006;21.964;2023-07-28T17:34:10;3.25;;;2.60;;
56999;SDS011;42891;50.006;21.964;2023-07-28T17:38:10;4.15;;;2.60;;
56999;SDS011;42891;50.006;21.964;2023-07-28T17:42:11;3.95;;;2.30;;
56999;SDS011;42891;50.006;21.964;2023-07-28T17:46:11;3.08;;;2.53;;
56999;SDS011;42891;50.006;21.964;2023-07-28T17:50:12;3.25;;;2.60;;
56999;SDS011;42891;50.006;21.964;2023-07-28T17:54:14;4.40;;;2.38;;
56999;SDS011;42891;50.006;21.964;2023-07-28T17:58:14;3.37;;;2.50;;
56999;SDS011;42891;50.006;21.964;2023-07-28T18:02:14;4.65;;;2.75;;
56999;SDS011;42891;50.006;21.964;2023-07-28T18:06:15;4.23;;;2.50;;
56999;SDS011;42891;50.006;21.964;2023-07-28T18:10:15;6.77;;;3.23;;
56999;SDS011;42891;50.006;21.964;2023-07-28T18:14:15;3.88;;;2.90;;
56999;SDS011;42891;50.006;21.964;2023-07-28T18:18:16;4.20;;;2.97;;
56999;SDS011;42891;50.006;21.964;2023-07-28T18:22:16;4.93;;;2.70;;
56999;SDS011;42891;50.006;21.964;2023-07-28T18:26:17;5.43;;;3.00;;
56999;SDS011;42891;50.006;21.964;2023-07-28T18:30:17;3.78;;;3.03;;
56999;SDS011;42891;50.006;21.964;2023-07-28T18:34:17;6.00;;;2.67;;
56999;SDS011;42891;50.006;21.964;2023-07-28T18:38:18;6.00;;;3.00;;
56999;SDS011;42891;50.006;21.964;2023-07-28T18:42:18;3.97;;;2.85;;
56999;SDS011;42891;50.006;21.964;2023-07-28T18:46:18;5.20;;;3.13;;
56999;SDS011;42891;50.006;21.964;2023-07-28T18:50:19;5.43;;;3.17;;
56999;SDS011;42891;50.006;21.964;2023-07-28T18:54:19;4.75;;;2.83;;
56999;SDS011;42891;50.006;21.964;2023-07-28T18:58:21;4.32;;;3.20;;
56999;SDS011;42891;50.006;21.964;2023-07-28T19:02:21;4.10;;;3.03;;
56999;SDS011;42891;50.006;21.964;2023-07-28T19:06:21;4.82;;;3.20;;
56999;SDS011;42891;50.006;21.964;2023-07-28T19:10:22;4.00;;;3.03;;
56999;SDS011;42891;50.006;21.964;2023-07-28T19:14:22;3.40;;;3.03;;
56999;SDS011;42891;50.006;21.964;2023-07-28T19:18:22;4.57;;;3.00;;
56999;SDS011;42891;50.006;21.964;2023-07-28T19:22:23;4.53;;;3.10;;
56999;SDS011;42891;50.006;21.964;2023-07-28T19:26:23;3.58;;;2.80;;
56999;SDS011;42891;50.006;21.964;2023-07-28T19:30:24;4.50;;;3.20;;
56999;SDS011;42891;50.006;21.964;2023-07-28T19:34:25;3.45;;;3.00;;
56999;SDS011;42891;50.006;21.964;2023-07-28T19:38:28;4.00;;;3.38;;
56999;SDS011;42891;50.006;21.964;2023-07-28T19:42:28;4.25;;;3.20;;
56999;SDS011;42891;50.006;21.964;2023-07-28T19:46:28;3.37;;;3.07;;
56999;SDS011;42891;50.006;21.964;2023-07-28T19:50:29;5.28;;;3.30;;
56999;SDS011;42891;50.006;21.964;2023-07-28T19:54:29;5.35;;;3.60;;
56999;SDS011;42891;50.006;21.964;2023-07-28T19:58:30;5.30;;;3.30;;
56999;SDS011;42891;50.006;21.964;2023-07-28T20:02:30;3.67;;;3.10;;
56999;SDS011;42891;50.006;21.964;2023-07-28T20:06:30;4.20;;;3.03;;
56999;SDS011;42891;50.006;21.964;2023-07-28T20:10:31;3.67;;;3.07;;
56999;SDS011;42891;50.006;21.964;2023-07-28T20:14:34;4.05;;;2.85;;
56999;SDS011;42891;50.006;21.964;2023-07-28T20:18:35;5.97;;;3.20;;
56999;SDS011;42891;50.006;21.964;2023-07-28T20:22:36;5.03;;;3.25;;
56999;SDS011;42891;50.006;21.964;2023-07-28T20:26:37;3.88;;;3.25;;
56999;SDS011;42891;50.006;21.964;2023-07-28T20:30:37;4.50;;;3.15;;
56999;SDS011;42891;50.006;21.964;2023-07-28T20:34:37;5.13;;;3.30;;
56999;SDS011;42891;50.006;21.964;2023-07-28T20:38:38;4.35;;;3.33;;
56999;SDS011;42891;50.006;21.964;2023-07-28T20:42:38;7.28;;;3.20;;
56999;SDS011;42891;50.006;21.964;2023-07-28T20:46:38;4.32;;;3.38;;
56999;SDS011;42891;50.006;21.964;2023-07-28T20:50:39;5.15;;;3.60;;
56999;SDS011;42891;50.006;21.964;2023-07-28T20:54:39;4.13;;;3.20;;
56999;SDS011;42891;50.006;21.964;2023-07-28T20:58:40;5.25;;;3.35;;
56999;SDS011;42891;50.006;21.964;2023-07-28T21:02:41;4.75;;;3.92;;
56999;SDS011;42891;50.006;21.964;2023-07-28T21:06:42;5.97;;;3.15;;
56999;SDS011;42891;50.006;21.964;2023-07-28T21:10:42;5.97;;;3.30;;
56999;SDS011;42891;50.006;21.964;2023-07-28T21:14:42;5.90;;;3.13;;
56999;SDS011;42891;50.006;21.964;2023-07-28T21:18:43;4.75;;;3.42;;
56999;SDS011;42891;50.006;21.964;2023-07-28T21:22:43;5.18;;;3.47;;
56999;SDS011;42891;50.006;21.964;2023-07-28T21:26:43;4.47;;;3.25;;
56999;SDS011;42891;50.006;21.964;2023-07-28T21:30:44;4.05;;;2.97;;
56999;SDS011;42891;50.006;21.964;2023-07-28T21:34:45;4.18;;;3.35;;
56999;SDS011;42891;50.006;21.964;2023-07-28T21:38:46;4.35;;;2.88;;
56999;SDS011;42891;50.006;21.964;2023-07-28T21:42:46;4.47;;;2.70;;
56999;SDS011;42891;50.006;21.964;2023-07-28T21:46:47;4.65;;;2.80;;
56999;SDS011;42891;50.006;21.964;2023-07-28T21:50:48;4.50;;;3.35;;
56999;SDS011;42891;50.006;21.964;2023-07-28T21:54:48;5.70;;;3.85;;
56999;SDS011;42891;50.006;21.964;2023-07-28T21:58:48;3.80;;;3.17;;
56999;SDS011;42891;50.006;21.964;2023-07-28T22:02:49;4.18;;;2.97;;
56999;SDS011;42891;50.006;21.964;2023-07-28T22:06:49;5.97;;;3.20;;
56999;SDS011;42891;50.006;21.964;2023-07-28T22:10:49;3.70;;;3.00;;
56999;SDS011;42891;50.006;21.964;2023-07-28T22:14:50;4.85;;;3.38;;
56999;SDS011;42891;50.006;21.964;2023-07-28T22:18:50;6.88;;;3.30;;
56999;SDS011;42891;50.006;21.964;2023-07-28T22:22:50;3.75;;;3.05;;
56999;SDS011;42891;50.006;21.964;2023-07-28T22:26:51;3.63;;;3.10;;
56999;SDS011;42891;50.006;21.964;2023-07-28T22:30:51;4.10;;;3.00;;
56999;SDS011;42891;50.006;21.964;2023-07-28T22:34:52;3.92;;;3.45;;
56999;SDS011;42891;50.006;21.964;2023-07-28T22:38:52;5.28;;;2.80;;
56999;SDS011;42891;50.006;21.964;2023-07-28T22:42:52;4.28;;;3.00;;
56999;SDS011;42891;50.006;21.964;2023-07-28T22:46:53;3.17;;;2.83;;
56999;SDS011;42891;50.006;21.964;2023-07-28T22:50:53;6.70;;;2.97;;
56999;SDS011;42891;50.006;21.964;2023-07-28T22:54:54;3.47;;;2.83;;
56999;SDS011;42891;50.006;21.964;2023-07-28T22:58:54;4.05;;;2.80;;
56999;SDS011;42891;50.006;21.964;2023-07-28T23:02:54;5.72;;;3.10;;
56999;SDS011;42891;50.006;21.964;2023-07-28T23:06:55;3.55;;;3.20;;
56999;SDS011;42891;50.006;21.964;2023-07-28T23:10:55;3.78;;;3.10;;
56999;SDS011;42891;50.006;21.964;2023-07-28T23:14:55;4.30;;;2.70;;
56999;SDS011;42891;50.006;21.964;2023-07-28T23:18:56;4.57;;;3.22;;
56999;SDS011;42891;50.006;21.964;2023-07-28T23:22:56;4.07;;;3.17;;
56999;SDS011;42891;50.006;21.964;2023-07-28T23:26:56;4.03;;;3.00;;
56999;SDS011;42891;50.006;21.964;2023-07-28T23:31:09;5.25;;;3.13;;
56999;SDS011;42891;50.006;21.964;2023-07-28T23:35:13;5.95;;;3.35;;
56999;SDS011;42891;50.006;21.964;2023-07-28T23:39:14;4.70;;;3.05;;
56999;SDS011;42891;50.006;21.964;2023-07-28T23:43:14;4.53;;;3.10;;
56999;SDS011;42891;50.006;21.964;2023-07-28T23:47:14;3.80;;;3.03;;
56999;SDS011;42891;50.006;21.964;2023-07-28T23:51:15;3.70;;;3.20;;
56999;SDS011;42891;50.006;21.964;2023-07-28T23:55:15;4.23;;;3.20;;
56999;SDS011;42891;50.006;21.964;2023-07-28T23:59:15;4.18;;;3.22;;
